Time;durP1;ratioP1;P1;durP2;ratioP2;P2;SDS_P1;SDS_P2;PMS_P1;PMS_P2;Temp;Humidity;BMP_temperature;BMP_pressure;BME280_temperature;BME280_humidity;BME280_pressure;Samples;Min_cycle;Max_cycle;Signal;HPM_P1;HPM_P2
2021/12/29 00:00:09;;;;;;;4.93;1.53;;;10.00;99.90;;;;;;5020035;28;20957;-71
2021/12/29 00:02:38;;;;;;;2.80;1.10;;;9.90;99.90;;;;;;5022170;28;20473;-72
2021/12/29 00:05:06;;;;;;;3.50;1.23;;;9.90;99.90;;;;;;5018687;28;20481;-72
2021/12/29 00:07:33;;;;;;;4.80;1.30;;;9.90;99.90;;;;;;5021217;28;20495;-72
2021/12/29 00:10:01;;;;;;;3.13;1.10;;;9.90;99.90;;;;;;5020578;28;21098;-72
2021/12/29 00:12:29;;;;;;;3.33;1.37;;;9.90;99.90;;;;;;5019858;28;21454;-71
2021/12/29 00:14:56;;;;;;;3.20;1.00;;;9.90;99.90;;;;;;5021527;28;20477;-71
2021/12/29 00:17:23;;;;;;;3.00;1.10;;;9.90;99.90;;;;;;5021124;28;20895;-70
2021/12/29 00:19:52;;;;;;;5.33;1.53;;;9.90;99.90;;;;;;5022571;28;20548;-72
2021/12/29 00:22:19;;;;;;;4.53;1.57;;;10.00;99.90;;;;;;5019619;28;20452;-70
2021/12/29 00:24:46;;;;;;;3.50;1.30;;;10.00;99.90;;;;;;5021195;28;20529;-72
2021/12/29 00:27:13;;;;;;;5.90;1.53;;;10.00;99.90;;;;;;5019889;28;20473;-72
2021/12/29 00:29:40;;;;;;;3.90;1.83;;;10.10;99.90;;;;;;5021199;28;20443;-71
2021/12/29 00:32:07;;;;;;;3.20;1.33;;;10.10;99.90;;;;;;5020366;28;20450;-72
2021/12/29 00:34:34;;;;;;;2.60;1.00;;;10.10;99.90;;;;;;5019094;28;21351;-71
2021/12/29 00:37:02;;;;;;;4.60;1.30;;;10.10;99.90;;;;;;5020557;28;20449;-71
2021/12/29 00:39:29;;;;;;;5.80;1.43;;;10.10;99.90;;;;;;5020327;28;20451;-73
2021/12/29 00:41:56;;;;;;;3.87;1.13;;;10.10;99.90;;;;;;5021351;28;20942;-71
2021/12/29 00:44:23;;;;;;;4.33;1.50;;;10.10;99.90;;;;;;5011251;28;20553;-70
2021/12/29 00:46:53;;;;;;;4.53;1.47;;;10.10;99.90;;;;;;5005301;28;20476;-73
2021/12/29 00:49:20;;;;;;;3.93;1.10;;;10.10;99.90;;;;;;5005683;28;20466;-73
2021/12/29 00:51:48;;;;;;;5.00;1.90;;;10.10;99.90;;;;;;5015354;28;20841;-72
2021/12/29 00:54:16;;;;;;;5.03;1.30;;;10.10;99.90;;;;;;5006727;28;20936;-72
2021/12/29 00:56:44;;;;;;;6.53;1.20;;;10.00;99.90;;;;;;5006551;28;20474;-72
2021/12/29 00:59:11;;;;;;;2.33;0.90;;;10.00;99.90;;;;;;5007039;28;20494;-73
2021/12/29 01:01:38;;;;;;;4.63;1.07;;;10.00;99.90;;;;;;5007205;28;20457;-72
2021/12/29 01:04:06;;;;;;;4.63;1.00;;;10.00;99.90;;;;;;5006426;28;20553;-72
2021/12/29 01:06:33;;;;;;;6.23;1.80;;;10.00;99.90;;;;;;5005753;28;20489;-72
2021/12/29 01:09:00;;;;;;;3.70;1.23;;;10.00;99.90;;;;;;5006455;28;21093;-72
2021/12/29 01:11:28;;;;;;;4.40;1.27;;;9.90;99.90;;;;;;5006386;28;20458;-71
2021/12/29 01:13:55;;;;;;;3.27;1.20;;;9.90;99.90;;;;;;5006710;28;20541;-73
2021/12/29 01:16:38;;;;;;;2.30;0.70;;;9.90;99.90;;;;;;5005440;28;21035;-72
2021/12/29 01:19:09;;;;;;;4.30;1.20;;;9.90;99.90;;;;;;5015831;28;20454;-71
2021/12/29 01:21:37;;;;;;;3.67;1.07;;;9.90;99.90;;;;;;5006179;28;20493;-71
2021/12/29 01:24:06;;;;;;;3.47;1.00;;;9.90;99.90;;;;;;5006902;28;20905;-71
2021/12/29 01:26:35;;;;;;;2.50;0.97;;;9.90;99.90;;;;;;5006431;28;20846;-72
2021/12/29 01:29:02;;;;;;;2.33;0.77;;;9.90;99.90;;;;;;5006085;28;20486;-71
2021/12/29 01:31:29;;;;;;;2.43;1.00;;;9.90;99.90;;;;;;5006145;28;20486;-71
2021/12/29 01:33:56;;;;;;;3.30;0.80;;;9.90;99.90;;;;;;5006134;28;20954;-70
2021/12/29 01:36:23;;;;;;;3.20;1.00;;;9.90;99.90;;;;;;5005952;28;20490;-72
2021/12/29 01:38:50;;;;;;;6.07;0.93;;;9.90;99.90;;;;;;5006119;28;20545;-71
2021/12/29 01:41:17;;;;;;;2.17;0.97;;;9.90;99.90;;;;;;5005647;28;20496;-73
2021/12/29 01:43:45;;;;;;;2.90;0.97;;;9.90;99.90;;;;;;5005979;28;20516;-72
2021/12/29 01:46:12;;;;;;;2.43;1.00;;;9.90;99.90;;;;;;5005191;28;20560;-72
2021/12/29 01:48:39;;;;;;;3.00;1.00;;;9.80;99.90;;;;;;5006437;28;20455;-72
2021/12/29 01:51:06;;;;;;;3.97;1.10;;;9.90;99.90;;;;;;5004773;28;21219;-72
2021/12/29 01:53:35;;;;;;;2.53;0.90;;;9.90;99.90;;;;;;5006830;28;20461;-71
2021/12/29 01:56:02;;;;;;;3.80;1.07;;;9.90;99.90;;;;;;5006128;28;21051;-72
2021/12/29 01:58:29;;;;;;;2.87;0.90;;;9.90;99.90;;;;;;5006350;28;20460;-70
2021/12/29 02:01:00;;;;;;;3.30;0.80;;;9.90;99.90;;;;;;5008486;28;20446;-71
2021/12/29 02:03:27;;;;;;;2.13;0.90;;;9.90;99.90;;;;;;5008410;28;20454;-70
2021/12/29 02:05:54;;;;;;;3.30;1.00;;;9.90;99.90;;;;;;5007921;28;20470;-73
2021/12/29 02:08:23;;;;;;;2.17;0.90;;;9.90;99.90;;;;;;5008638;28;20876;-71
2021/12/29 02:10:51;;;;;;;4.13;0.83;;;10.00;99.90;;;;;;5008358;28;20456;-72
2021/12/29 02:13:19;;;;;;;3.60;1.00;;;10.00;99.90;;;;;;5008745;28;20824;-71
2021/12/29 02:15:46;;;;;;;4.73;0.90;;;9.90;99.90;;;;;;5008254;28;20488;-71
2021/12/29 02:18:16;;;;;;;2.10;1.10;;;10.00;99.90;;;;;;5008893;28;20644;-71
2021/12/29 02:20:46;;;;;;;3.50;0.80;;;10.00;99.90;;;;;;5008687;28;20537;-71
2021/12/29 02:23:18;;;;;;;1.90;0.80;;;10.00;99.90;;;;;;5008319;28;20444;-71
2021/12/29 02:25:50;;;;;;;3.83;1.13;;;10.00;99.90;;;;;;5008427;28;20498;-71
2021/12/29 02:28:22;;;;;;;2.13;0.67;;;10.00;99.90;;;;;;5008346;28;20449;-71
2021/12/29 02:30:49;;;;;;;1.93;0.63;;;10.00;99.90;;;;;;5008639;28;20506;-71
2021/12/29 02:33:17;;;;;;;3.27;0.73;;;10.00;99.90;;;;;;5007925;28;20448;-71
2021/12/29 02:35:46;;;;;;;1.70;0.63;;;10.00;99.90;;;;;;5007780;28;20569;-69
2021/12/29 02:38:23;;;;;;;2.37;0.60;;;10.00;99.90;;;;;;5008554;28;20450;-71
2021/12/29 02:40:52;;;;;;;4.10;0.80;;;10.00;99.90;;;;;;5008484;28;20450;-70
2021/12/29 02:43:21;;;;;;;2.03;0.80;;;10.00;99.90;;;;;;5010163;28;20456;-70
2021/12/29 02:45:51;;;;;;;3.53;0.87;;;10.00;99.90;;;;;;5010912;28;20505;-70
2021/12/29 02:48:20;;;;;;;2.70;0.70;;;10.10;99.90;;;;;;5012165;28;20956;-71
2021/12/29 02:50:49;;;;;;;4.80;0.77;;;10.10;99.90;;;;;;5011685;28;20454;-70
2021/12/29 02:53:16;;;;;;;2.53;0.73;;;10.10;99.90;;;;;;5011896;28;20968;-70
2021/12/29 02:55:43;;;;;;;2.10;0.70;;;10.10;99.90;;;;;;5011339;28;20492;-70
2021/12/29 02:58:09;;;;;;;2.53;1.20;;;10.00;99.90;;;;;;5011749;28;20446;-70
2021/12/29 03:00:36;;;;;;;2.20;0.73;;;10.10;99.90;;;;;;5012112;28;20538;-73
2021/12/29 03:03:13;;;;;;;1.90;0.90;;;10.10;99.90;;;;;;5012264;28;20539;-71
2021/12/29 03:05:40;;;;;;;3.80;0.90;;;10.10;99.90;;;;;;5011493;28;20549;-72
2021/12/29 03:08:08;;;;;;;2.37;0.83;;;10.00;99.90;;;;;;5011369;28;20446;-71
2021/12/29 03:10:35;;;;;;;1.90;0.90;;;10.10;99.90;;;;;;5011285;28;20450;-71
2021/12/29 03:13:02;;;;;;;2.93;0.70;;;10.00;99.90;;;;;;5011868;28;20442;-70
2021/12/29 03:15:29;;;;;;;3.00;0.97;;;10.10;99.90;;;;;;5011467;28;20589;-71
2021/12/29 03:17:56;;;;;;;5.97;1.00;;;10.10;99.90;;;;;;5012871;28;20561;-71
2021/12/29 03:20:23;;;;;;;2.53;1.23;;;10.10;99.90;;;;;;5012368;28;20454;-71
2021/12/29 03:22:49;;;;;;;3.60;1.03;;;10.10;99.90;;;;;;5011433;28;20454;-71
2021/12/29 03:25:18;;;;;;;2.23;0.80;;;10.10;99.90;;;;;;5010824;28;20474;-69
2021/12/29 03:27:44;;;;;;;3.13;0.87;;;10.10;99.90;;;;;;5010739;28;20542;-71
2021/12/29 03:30:12;;;;;;;3.70;1.00;;;10.10;99.90;;;;;;5010651;28;20453;-72
2021/12/29 03:32:43;;;;;;;3.03;0.77;;;10.10;99.90;;;;;;5010832;28;20459;-72
2021/12/29 03:35:10;;;;;;;2.63;0.70;;;10.10;99.90;;;;;;5010215;28;20465;-71
2021/12/29 03:37:37;;;;;;;3.10;0.87;;;10.00;99.90;;;;;;5010585;28;21143;-70
2021/12/29 03:40:06;;;;;;;3.97;0.90;;;10.00;99.90;;;;;;5010518;28;20977;-71
2021/12/29 03:42:34;;;;;;;4.30;1.20;;;10.00;99.90;;;;;;5010356;28;20453;-69
2021/12/29 03:45:01;;;;;;;2.33;0.80;;;10.00;99.90;;;;;;5010157;28;20442;-70
2021/12/29 03:47:28;;;;;;;1.90;0.80;;;10.00;99.90;;;;;;5010379;28;20470;-70
2021/12/29 03:49:55;;;;;;;2.40;1.00;;;10.00;99.90;;;;;;5010721;28;20458;-71
2021/12/29 03:52:22;;;;;;;2.47;0.70;;;10.00;99.90;;;;;;5010468;28;20447;-70
2021/12/29 03:54:48;;;;;;;2.30;1.07;;;10.00;99.90;;;;;;5009915;28;20478;-71
2021/12/29 03:57:15;;;;;;;2.80;0.83;;;9.90;99.90;;;;;;5010717;28;20501;-71
2021/12/29 03:59:43;;;;;;;2.10;0.73;;;9.90;99.90;;;;;;5011156;28;20914;-70
2021/12/29 04:02:10;;;;;;;1.83;0.70;;;9.90;99.90;;;;;;5011119;28;20550;-71
2021/12/29 04:04:37;;;;;;;3.77;1.00;;;9.90;99.90;;;;;;5010977;28;20445;-71
2021/12/29 04:07:04;;;;;;;2.97;0.80;;;9.80;99.90;;;;;;5011914;28;20474;-72
2021/12/29 04:09:31;;;;;;;2.30;0.70;;;9.80;99.90;;;;;;5012617;28;20443;-72
2021/12/29 04:11:58;;;;;;;2.50;0.60;;;9.80;99.90;;;;;;5011479;28;20932;-69
2021/12/29 04:14:26;;;;;;;2.47;0.87;;;9.90;99.90;;;;;;5013154;28;20542;-71
2021/12/29 04:16:56;;;;;;;2.87;0.80;;;9.80;99.90;;;;;;5012104;28;21097;-71
2021/12/29 04:19:40;;;;;;;1.97;0.60;;;9.90;99.90;;;;;;5010943;28;20505;-70
2021/12/29 04:22:08;;;;;;;2.60;0.70;;;9.90;99.90;;;;;;5010392;28;20478;-71
2021/12/29 04:24:37;;;;;;;3.03;0.80;;;9.90;99.90;;;;;;5009386;28;20465;-71
2021/12/29 04:27:06;;;;;;;2.23;0.83;;;9.90;99.90;;;;;;5009202;28;20557;-71
2021/12/29 04:29:33;;;;;;;2.03;0.70;;;9.90;99.90;;;;;;5010071;28;20447;-70
2021/12/29 04:32:02;;;;;;;2.50;0.60;;;9.90;99.90;;;;;;5009600;28;20458;-71
2021/12/29 04:34:28;;;;;;;1.57;0.57;;;9.90;99.90;;;;;;5009262;28;20481;-70
2021/12/29 04:36:55;;;;;;;1.50;0.53;;;9.90;99.90;;;;;;5009373;28;20582;-71
2021/12/29 04:39:22;;;;;;;1.97;0.53;;;9.90;99.90;;;;;;5009804;28;20460;-70
2021/12/29 04:41:49;;;;;;;2.33;0.60;;;9.90;99.90;;;;;;5009373;28;20454;-70
2021/12/29 04:44:16;;;;;;;1.60;0.60;;;9.90;99.90;;;;;;5009113;28;20450;-70
2021/12/29 04:46:46;;;;;;;1.90;0.80;;;9.90;99.90;;;;;;5008830;28;20475;-72
2021/12/29 04:49:21;;;;;;;1.40;0.40;;;9.90;99.90;;;;;;5009341;28;20517;-71
2021/12/29 04:51:55;;;;;;;1.50;0.50;;;9.90;99.90;;;;;;5009101;28;20454;-70
2021/12/29 04:54:22;;;;;;;1.47;0.50;;;9.90;99.90;;;;;;5009299;28;20508;-71
2021/12/29 04:56:50;;;;;;;3.20;0.87;;;9.90;99.90;;;;;;5009042;28;20489;-71
2021/12/29 04:59:17;;;;;;;1.80;0.50;;;9.70;99.90;;;;;;5008846;28;20533;-71
2021/12/29 05:01:44;;;;;;;2.83;0.50;;;9.60;99.90;;;;;;5008775;28;20529;-72
2021/12/29 05:04:19;;;;;;;1.70;0.63;;;9.50;99.90;;;;;;5009534;28;20454;-71
2021/12/29 05:09:31;;;;;;;2.00;0.60;;;9.30;99.90;;;;;;5009246;28;20433;-70
2021/12/29 05:12:01;;;;;;;1.60;0.60;;;9.30;99.90;;;;;;5008905;28;20446;-71
2021/12/29 05:14:28;;;;;;;1.70;0.50;;;9.20;99.90;;;;;;5008854;28;20453;-72
2021/12/29 05:16:55;;;;;;;1.70;0.60;;;9.20;99.90;;;;;;5008502;28;20500;-71
2021/12/29 05:19:22;;;;;;;2.20;0.87;;;9.20;99.90;;;;;;5008979;28;20449;-71
2021/12/29 05:21:50;;;;;;;1.73;0.50;;;9.20;99.90;;;;;;5008957;28;20513;-71
2021/12/29 05:24:17;;;;;;;2.70;0.70;;;9.30;99.90;;;;;;5008505;28;20529;-72
2021/12/29 05:26:44;;;;;;;2.60;0.67;;;9.30;99.90;;;;;;5008874;28;20549;-70
2021/12/29 05:29:11;;;;;;;2.23;0.50;;;9.30;99.90;;;;;;5008947;28;20453;-70
2021/12/29 05:31:38;;;;;;;2.00;0.70;;;9.10;99.90;;;;;;5008587;28;20473;-69
2021/12/29 05:34:05;;;;;;;2.33;0.70;;;9.00;99.90;;;;;;5008763;28;20446;-70
2021/12/29 05:36:31;;;;;;;3.43;0.60;;;8.80;99.90;;;;;;5008106;28;20488;-69
2021/12/29 05:39:00;;;;;;;2.83;0.70;;;8.70;99.90;;;;;;5008595;28;20458;-69
2021/12/29 05:41:27;;;;;;;2.77;0.50;;;8.60;99.90;;;;;;5009171;28;20848;-70
2021/12/29 05:43:54;;;;;;;1.43;0.50;;;8.60;99.90;;;;;;5009004;28;20449;-72
2021/12/29 05:46:20;;;;;;;2.70;0.70;;;8.70;99.90;;;;;;5008496;28;20553;-71
2021/12/29 05:48:47;;;;;;;3.57;1.00;;;8.60;99.90;;;;;;5008738;28;20982;-72
2021/12/29 05:51:14;;;;;;;1.80;0.70;;;8.60;99.90;;;;;;5010723;28;20446;-72
2021/12/29 05:53:42;;;;;;;2.80;0.80;;;8.60;99.90;;;;;;5010527;28;20944;-72
2021/12/29 05:56:11;;;;;;;1.67;0.73;;;8.60;99.90;;;;;;5008619;28;20486;-72
2021/12/29 05:58:39;;;;;;;1.83;0.77;;;8.60;99.90;;;;;;5008474;28;20448;-72
2021/12/29 06:01:06;;;;;;;1.70;0.70;;;8.60;99.90;;;;;;5008762;28;20818;-73
2021/12/29 06:03:33;;;;;;;4.50;0.90;;;8.60;99.90;;;;;;5008821;28;20451;-72
2021/12/29 06:06:00;;;;;;;2.10;0.70;;;8.60;99.90;;;;;;5008403;28;20478;-72
2021/12/29 06:08:26;;;;;;;1.93;0.80;;;8.60;99.90;;;;;;5008840;28;21052;-73
2021/12/29 06:10:53;;;;;;;1.90;0.70;;;8.50;99.90;;;;;;5008903;28;20545;-72
2021/12/29 06:13:22;;;;;;;2.00;0.80;;;8.60;99.90;;;;;;5009149;28;20557;-72
2021/12/29 06:15:48;;;;;;;1.70;0.67;;;8.60;99.90;;;;;;5008082;28;20466;-71
2021/12/29 06:18:15;;;;;;;1.63;0.70;;;8.60;99.90;;;;;;5012206;28;20454;-72
2021/12/29 06:20:42;;;;;;;4.97;0.80;;;8.60;99.90;;;;;;5012347;28;20450;-72
2021/12/29 06:23:12;;;;;;;1.93;0.80;;;8.60;99.90;;;;;;5012391;28;20446;-73
2021/12/29 06:25:40;;;;;;;2.23;1.00;;;8.60;99.90;;;;;;5012438;28;20466;-71
2021/12/29 06:28:07;;;;;;;1.97;0.90;;;8.60;99.90;;;;;;5012130;28;20445;-72
2021/12/29 06:30:35;;;;;;;2.20;1.10;;;8.60;99.90;;;;;;5012123;28;20458;-72
2021/12/29 06:33:02;;;;;;;1.80;0.73;;;8.70;99.90;;;;;;5012163;28;20445;-73
2021/12/29 06:35:29;;;;;;;2.87;1.27;;;8.70;99.90;;;;;;5010643;28;20529;-72
2021/12/29 06:37:56;;;;;;;2.03;0.87;;;8.60;99.90;;;;;;5011243;28;21025;-72
2021/12/29 06:40:22;;;;;;;1.70;0.67;;;8.60;99.90;;;;;;5010969;28;20449;-73
2021/12/29 06:42:49;;;;;;;2.23;0.97;;;8.60;99.90;;;;;;5011223;28;20541;-72
2021/12/29 06:45:16;;;;;;;5.97;1.17;;;8.60;99.90;;;;;;5010697;28;20537;-73
2021/12/29 06:47:44;;;;;;;2.00;0.80;;;8.60;99.90;;;;;;5010922;28;20462;-72
2021/12/29 06:50:12;;;;;;;1.90;0.90;;;8.60;99.90;;;;;;5011189;28;20477;-72
2021/12/29 06:52:39;;;;;;;1.90;0.80;;;8.60;99.90;;;;;;5011146;28;20532;-73
2021/12/29 06:55:07;;;;;;;2.17;1.10;;;8.60;99.90;;;;;;5010936;28;20454;-72
2021/12/29 06:57:34;;;;;;;4.47;1.43;;;8.50;99.90;;;;;;5010876;28;20520;-72
2021/12/29 07:00:01;;;;;;;4.77;1.83;;;8.60;99.90;;;;;;5010974;28;20549;-72
2021/12/29 07:02:28;;;;;;;3.23;1.20;;;8.60;99.90;;;;;;5011081;28;20819;-71
2021/12/29 07:04:56;;;;;;;2.50;1.30;;;8.60;99.90;;;;;;5010600;28;20450;-71
2021/12/29 07:07:23;;;;;;;4.60;2.40;;;8.60;99.90;;;;;;5010922;28;20465;-72
2021/12/29 07:09:50;;;;;;;4.53;1.43;;;8.70;99.90;;;;;;5010903;28;20468;-72
2021/12/29 07:12:19;;;;;;;3.90;1.70;;;8.60;99.90;;;;;;5010841;28;20530;-71
2021/12/29 07:14:46;;;;;;;4.30;1.93;;;8.60;99.90;;;;;;5010136;28;20453;-71
2021/12/29 07:17:13;;;;;;;3.70;1.90;;;8.60;99.90;;;;;;5010575;28;20489;-71
2021/12/29 07:19:40;;;;;;;2.00;0.90;;;8.60;99.90;;;;;;5010850;28;20477;-72
2021/12/29 07:22:08;;;;;;;5.80;1.10;;;8.60;99.90;;;;;;5010547;28;20469;-71
2021/12/29 07:24:35;;;;;;;3.40;1.57;;;8.70;99.90;;;;;;5010421;28;20446;-72
2021/12/29 07:27:03;;;;;;;4.63;1.40;;;8.70;99.90;;;;;;5009984;28;20466;-72
2021/12/29 07:29:29;;;;;;;3.53;1.47;;;8.70;99.90;;;;;;5009431;28;20446;-73
2021/12/29 07:31:57;;;;;;;2.90;1.30;;;8.70;99.90;;;;;;5010309;28;20452;-73
2021/12/29 07:34:24;;;;;;;1.97;0.90;;;8.70;99.90;;;;;;5010207;28;20557;-72
2021/12/29 07:36:52;;;;;;;2.63;1.10;;;8.70;99.90;;;;;;5009564;28;20573;-71
2021/12/29 07:39:20;;;;;;;2.33;1.07;;;8.80;99.90;;;;;;5009826;28;20537;-72
2021/12/29 07:41:48;;;;;;;4.30;1.20;;;8.80;99.90;;;;;;5009711;28;20958;-71
2021/12/29 07:44:16;;;;;;;2.70;1.20;;;8.80;99.90;;;;;;5010008;28;20446;-71
2021/12/29 07:46:45;;;;;;;4.07;1.17;;;8.80;99.90;;;;;;5009836;28;20815;-71
2021/12/29 07:49:12;;;;;;;3.50;1.00;;;8.80;99.90;;;;;;5010061;28;20446;-71
2021/12/29 07:51:40;;;;;;;2.30;1.10;;;8.80;99.90;;;;;;5009809;28;20464;-72
2021/12/29 07:54:07;;;;;;;1.97;0.87;;;8.80;99.90;;;;;;5009575;28;20446;-71
2021/12/29 07:56:35;;;;;;;3.60;1.07;;;8.80;99.90;;;;;;5009249;28;20470;-71
2021/12/29 07:59:03;;;;;;;2.47;1.17;;;8.80;99.90;;;;;;5010111;28;20458;-71
2021/12/29 08:01:29;;;;;;;4.53;1.47;;;8.80;99.90;;;;;;5009627;28;20841;-73
2021/12/29 08:03:56;;;;;;;2.53;1.10;;;8.90;99.90;;;;;;5009509;28;20454;-72
2021/12/29 08:06:23;;;;;;;2.90;1.63;;;8.90;99.90;;;;;;5008977;28;20489;-71
2021/12/29 08:08:50;;;;;;;2.73;1.03;;;8.90;99.90;;;;;;5009298;28;21183;-72
2021/12/29 08:11:19;;;;;;;4.43;1.30;;;8.90;99.90;;;;;;5009402;28;20450;-71
2021/12/29 08:13:47;;;;;;;5.93;1.47;;;8.90;99.90;;;;;;5009217;28;20932;-72
2021/12/29 08:16:14;;;;;;;6.43;1.20;;;8.90;99.90;;;;;;5008888;28;20508;-73
2021/12/29 08:18:41;;;;;;;9.50;1.27;;;8.90;99.90;;;;;;5009340;28;21015;-71
2021/12/29 08:21:08;;;;;;;2.53;1.00;;;9.00;99.90;;;;;;5009464;28;20529;-71
2021/12/29 08:23:35;;;;;;;3.73;1.00;;;8.90;99.90;;;;;;5009374;28;20453;-71
2021/12/29 08:26:02;;;;;;;4.00;1.13;;;8.90;99.90;;;;;;5009039;28;20466;-71
2021/12/29 08:28:29;;;;;;;7.37;1.17;;;8.90;99.90;;;;;;5009004;28;20541;-73
2021/12/29 08:30:57;;;;;;;2.30;1.13;;;8.90;99.90;;;;;;5009394;28;20454;-71
2021/12/29 08:33:24;;;;;;;5.33;1.10;;;8.90;99.90;;;;;;5009266;28;20450;-70
2021/12/29 08:35:52;;;;;;;4.07;1.00;;;9.00;99.90;;;;;;5008885;28;20504;-72
2021/12/29 08:38:19;;;;;;;2.90;1.10;;;9.10;99.90;;;;;;5009005;28;20486;-70
2021/12/29 08:40:46;;;;;;;4.50;1.00;;;9.10;99.90;;;;;;5009500;28;20506;-73
2021/12/29 08:43:15;;;;;;;2.77;1.30;;;9.20;99.90;;;;;;5009040;28;20442;-70
2021/12/29 08:45:42;;;;;;;2.60;1.13;;;9.30;99.90;;;;;;5008973;28;20498;-73
2021/12/29 08:48:11;;;;;;;4.20;1.37;;;9.40;99.90;;;;;;5009274;28;20442;-70
2021/12/29 08:50:39;;;;;;;4.23;1.97;;;9.40;99.90;;;;;;5008810;28;20964;-71
2021/12/29 08:53:07;;;;;;;3.97;2.77;;;9.50;99.90;;;;;;5008532;28;20448;-72
2021/12/29 08:55:35;;;;;;;5.80;2.53;;;9.60;99.90;;;;;;5008140;28;20450;-72
2021/12/29 08:58:06;;;;;;;2.60;1.80;;;9.60;99.90;;;;;;5008714;28;20489;-71
2021/12/29 09:00:33;;;;;;;3.20;1.87;;;9.60;99.90;;;;;;5008729;28;20442;-72
2021/12/29 09:03:00;;;;;;;4.30;1.53;;;9.60;99.90;;;;;;5009155;28;20449;-72
2021/12/29 09:05:28;;;;;;;6.10;1.50;;;9.70;99.90;;;;;;5008167;28;20450;-71
2021/12/29 09:07:55;;;;;;;3.37;1.40;;;9.70;99.90;;;;;;5008632;28;20440;-71
2021/12/29 09:10:22;;;;;;;3.83;1.20;;;9.60;99.90;;;;;;5008645;28;20448;-70
2021/12/29 09:12:51;;;;;;;2.20;1.17;;;9.60;99.90;;;;;;5008125;28;20446;-71
2021/12/29 09:15:19;;;;;;;3.13;1.20;;;9.70;99.90;;;;;;5008114;28;20449;-69
2021/12/29 09:17:46;;;;;;;3.20;1.20;;;9.70;99.90;;;;;;5008135;28;20478;-70
2021/12/29 09:20:23;;;;;;;2.57;1.10;;;9.70;99.90;;;;;;5008496;28;20442;-71
2021/12/29 09:22:52;;;;;;;3.33;1.13;;;9.70;99.90;;;;;;5008325;28;20481;-70
2021/12/29 09:25:20;;;;;;;5.67;1.70;;;9.70;99.90;;;;;;5007899;28;20457;-72
2021/12/29 09:27:50;;;;;;;3.37;2.13;;;9.80;99.90;;;;;;5008254;28;20449;-71
2021/12/29 09:30:18;;;;;;;2.60;1.33;;;9.80;99.90;;;;;;5007965;28;20458;-71
2021/12/29 09:32:45;;;;;;;3.20;1.30;;;9.90;99.90;;;;;;5008097;28;20540;-72
2021/12/29 09:35:12;;;;;;;3.10;1.30;;;9.90;99.90;;;;;;5007644;28;20948;-73
2021/12/29 09:37:40;;;;;;;1.90;1.10;;;10.00;99.90;;;;;;5007913;28;20505;-72
2021/12/29 09:40:10;;;;;;;5.73;1.60;;;10.10;99.90;;;;;;5008374;28;20442;-70
2021/12/29 09:42:37;;;;;;;3.00;1.20;;;10.10;99.90;;;;;;5008184;28;20819;-71
2021/12/29 09:45:07;;;;;;;5.10;2.07;;;10.10;99.90;;;;;;5008127;28;20767;-71
2021/12/29 09:47:35;;;;;;;2.93;1.30;;;10.10;99.90;;;;;;5007983;28;20466;-70
2021/12/29 09:50:02;;;;;;;7.30;1.73;;;10.10;99.90;;;;;;5008131;28;20442;-72
2021/12/29 09:52:33;;;;;;;2.93;1.30;;;10.20;99.90;;;;;;5007732;28;20548;-73
2021/12/29 09:55:04;;;;;;;2.40;1.27;;;10.30;99.90;;;;;;5007569;28;20576;-73
2021/12/29 09:57:32;;;;;;;2.77;1.57;;;10.30;99.90;;;;;;5008056;28;20636;-74
2021/12/29 09:59:59;;;;;;;3.13;1.40;;;10.40;99.90;;;;;;5007700;28;20453;-73
2021/12/29 10:02:26;;;;;;;3.63;1.60;;;10.40;99.90;;;;;;5008105;28;20450;-73
2021/12/29 10:04:56;;;;;;;5.77;2.27;;;10.40;99.90;;;;;;5007474;28;20477;-73
2021/12/29 10:07:23;;;;;;;4.47;1.40;;;10.50;99.90;;;;;;5007879;28;21112;-68
2021/12/29 10:09:50;;;;;;;7.70;1.90;;;10.50;99.90;;;;;;5007705;28;20460;-71
2021/12/29 10:12:20;;;;;;;2.83;1.13;;;10.60;99.90;;;;;;5008166;28;20450;-70
2021/12/29 10:14:54;;;;;;;4.83;1.30;;;10.60;99.90;;;;;;5007979;28;20811;-71
2021/12/29 10:17:26;;;;;;;3.77;1.43;;;10.60;99.90;;;;;;5007478;28;20489;-69
2021/12/29 10:20:03;;;;;;;3.67;1.33;;;10.70;99.90;;;;;;5008140;28;20962;-67
2021/12/29 10:22:30;;;;;;;3.70;1.27;;;10.70;99.90;;;;;;5008134;28;20442;-68
2021/12/29 10:25:06;;;;;;;4.70;1.20;;;10.80;99.90;;;;;;5007595;28;20942;-68
2021/12/29 10:27:34;;;;;;;8.03;1.37;;;10.80;99.90;;;;;;5008344;28;20564;-67
2021/12/29 10:30:17;;;;;;;3.00;0.90;;;10.80;99.90;;;;;;5008808;28;20456;-68
2021/12/29 10:32:44;;;;;;;4.03;1.20;;;10.80;99.90;;;;;;5008313;28;20541;-68
2021/12/29 10:35:21;;;;;;;3.67;1.37;;;10.80;99.90;;;;;;5008493;28;20460;-71
2021/12/29 10:37:48;;;;;;;5.20;1.27;;;10.90;99.90;;;;;;5008908;28;20473;-70
2021/12/29 10:40:25;;;;;;;4.20;1.80;;;11.00;99.90;;;;;;5007553;28;20545;-70
2021/12/29 10:42:58;;;;;;;3.50;1.50;;;11.10;99.90;;;;;;5007153;28;20456;-68
2021/12/29 10:45:36;;;;;;;9.80;2.13;;;11.20;99.90;;;;;;5007882;28;20541;-71
2021/12/29 10:48:17;;;;;;;2.77;1.80;;;11.30;99.90;;;;;;4999033;28;20447;-69
2021/12/29 10:50:56;;;;;;;7.83;1.90;;;11.50;99.90;;;;;;4987051;28;20812;-69
2021/12/29 10:53:23;;;;;;;7.30;2.13;;;11.50;99.90;;;;;;4986778;28;20446;-69
2021/12/29 10:55:50;;;;;;;5.50;2.30;;;11.50;99.90;;;;;;4984221;28;20981;-69
2021/12/29 10:58:19;;;;;;;8.10;1.90;;;11.40;99.90;;;;;;4986623;28;20493;-69
2021/12/29 11:00:50;;;;;;;10.17;2.60;;;11.40;99.90;;;;;;4985626;28;20530;-70
2021/12/29 11:03:19;;;;;;;4.47;1.83;;;11.30;99.90;;;;;;4987118;28;20447;-71
2021/12/29 11:05:50;;;;;;;3.63;1.60;;;11.30;99.90;;;;;;4988846;28;20514;-73
2021/12/29 11:08:18;;;;;;;4.43;1.97;;;11.40;99.90;;;;;;5008081;28;20447;-71
2021/12/29 11:10:46;;;;;;;5.43;1.73;;;11.40;99.90;;;;;;5010647;28;20441;-70
2021/12/29 11:13:23;;;;;;;6.43;2.00;;;11.30;99.90;;;;;;5010935;28;20453;-71
2021/12/29 11:15:54;;;;;;;4.57;1.70;;;11.30;99.90;;;;;;5009133;28;21008;-71
2021/12/29 11:18:21;;;;;;;4.90;1.80;;;11.30;99.90;;;;;;5001156;28;20492;-71
2021/12/29 11:20:53;;;;;;;3.57;1.70;;;11.30;99.90;;;;;;5008692;28;20457;-71
2021/12/29 11:23:21;;;;;;;4.47;1.50;;;11.30;99.90;;;;;;5009410;28;20462;-69
2021/12/29 11:25:50;;;;;;;3.77;1.50;;;11.30;99.90;;;;;;4995692;28;20475;-69
2021/12/29 11:28:22;;;;;;;7.33;2.47;;;11.30;99.90;;;;;;4988354;28;20937;-71
2021/12/29 11:30:51;;;;;;;3.83;1.47;;;11.30;99.90;;;;;;4988665;28;20465;-72
2021/12/29 11:33:19;;;;;;;8.63;1.60;;;11.30;99.90;;;;;;4994294;28;20451;-71
2021/12/29 11:35:49;;;;;;;4.33;1.70;;;11.20;99.90;;;;;;4994310;28;20592;-70
2021/12/29 11:38:18;;;;;;;7.50;2.00;;;11.20;99.90;;;;;;5006970;28;20576;-71
2021/12/29 11:40:48;;;;;;;3.90;1.53;;;11.20;99.90;;;;;;5021889;28;20545;-70
2021/12/29 11:43:15;;;;;;;5.23;1.50;;;11.30;99.90;;;;;;5023709;28;20455;-71
2021/12/29 11:45:43;;;;;;;4.83;1.27;;;11.30;99.90;;;;;;5020854;28;20473;-71
2021/12/29 11:48:13;;;;;;;13.00;2.33;;;11.20;99.90;;;;;;5024617;28;20507;-69
2021/12/29 11:50:46;;;;;;;9.90;2.87;;;11.20;99.90;;;;;;5020926;28;20452;-70
2021/12/29 11:53:27;;;;;;;4.90;1.70;;;11.30;99.90;;;;;;5014812;28;20456;-71
2021/12/29 11:56:00;;;;;;;2.00;1.07;;;11.30;99.90;;;;;;5015289;28;21208;-72
2021/12/29 11:58:29;;;;;;;6.00;1.50;;;11.20;99.90;;;;;;5017872;28;20484;-71
2021/12/29 12:01:05;;;;;;;5.60;1.70;;;11.20;99.90;;;;;;5021778;28;20461;-69
2021/12/29 12:03:48;;;;;;;7.27;1.80;;;11.10;99.90;;;;;;5001164;28;20464;-70
2021/12/29 12:06:23;;;;;;;2.40;1.10;;;11.10;99.90;;;;;;5014960;28;20520;-69
2021/12/29 12:09:02;;;;;;;2.83;1.33;;;11.20;99.90;;;;;;5009868;28;20434;-68
2021/12/29 12:11:29;;;;;;;3.67;1.47;;;11.20;99.90;;;;;;5004563;28;20512;-69
2021/12/29 12:13:56;;;;;;;3.40;1.30;;;11.20;99.90;;;;;;5008399;28;20529;-72
2021/12/29 12:16:26;;;;;;;4.20;1.97;;;11.20;99.90;;;;;;5008852;28;20474;-72
2021/12/29 12:18:57;;;;;;;3.67;1.87;;;11.20;99.90;;;;;;5010566;28;20506;-72
2021/12/29 12:21:30;;;;;;;3.17;1.87;;;11.20;99.90;;;;;;5009350;28;20434;-71
2021/12/29 12:24:11;;;;;;;3.00;1.27;;;11.30;99.90;;;;;;5002565;28;20443;-71
2021/12/29 12:26:53;;;;;;;4.37;1.33;;;11.20;99.90;;;;;;5004344;28;20804;-71
2021/12/29 12:29:22;;;;;;;3.40;1.40;;;11.10;99.90;;;;;;5007753;28;20798;-72
2021/12/29 12:32:01;;;;;;;4.67;1.47;;;11.10;99.90;;;;;;5008681;28;20806;-70
2021/12/29 12:34:29;;;;;;;2.77;1.60;;;11.20;99.90;;;;;;5010215;23;20520;-70
2021/12/29 12:36:56;;;;;;;2.70;1.40;;;11.20;99.90;;;;;;5006567;28;20462;-72
2021/12/29 12:39:24;;;;;;;4.00;1.67;;;11.30;99.90;;;;;;5008250;28;20493;-70
2021/12/29 12:41:56;;;;;;;3.40;1.63;;;11.30;99.90;;;;;;5009156;28;20548;-71
2021/12/29 12:44:32;;;;;;;3.27;1.30;;;11.40;99.90;;;;;;5008295;28;20450;-71
2021/12/29 12:47:13;;;;;;;4.83;1.10;;;11.50;99.90;;;;;;5006971;28;20464;-72
2021/12/29 12:49:51;;;;;;;3.90;1.33;;;11.50;99.90;;;;;;5004361;28;20450;-71
2021/12/29 12:52:18;;;;;;;3.83;1.40;;;11.50;99.90;;;;;;5007531;28;20876;-76
2021/12/29 12:54:49;;;;;;;3.30;1.30;;;11.50;99.90;;;;;;5008890;28;20553;-70
2021/12/29 12:57:27;;;;;;;2.07;1.07;;;11.50;99.90;;;;;;5009207;28;20553;-73
2021/12/29 13:00:04;;;;;;;2.70;1.40;;;11.40;99.90;;;;;;5008842;28;20508;-74
2021/12/29 13:02:37;;;;;;;5.63;1.33;;;11.40;99.90;;;;;;5006470;28;20456;-71